ADDS METAR Data INFO
IDs: Format: Raw Decoded Include TAF

Data at: 0545 UTC 25 Feb 2018

KCVB 250535Z AUTO 00000KT 5SM BR BKN034 18/18 A2997 RMK AO2 T01750175
KCVB 250515Z AUTO 07003KT 5SM BR BKN032 18/18 A2997 RMK AO2 T01790179
KCVB 250455Z AUTO 00000KT 1SM BR SCT003 BKN030 18/18 A2997 RMK AO2 T01750175
KCVB 250435Z AUTO 14004KT 1 1/4SM BR SCT003 17/17 A2996 RMK AO2 T01710171
KCVB 250415Z AUTO 00000KT 5SM BR CLR 18/18 A2996 RMK AO2 T01760176
KCVB 250355Z AUTO 00000KT 1/4SM FG VV002 17/17 A2995 RMK AO2 T01730173
KCVB 250335Z AUTO 00000KT 1/2SM FG VV005 17/17 A2994 RMK AO2 T01710171
KCVB 250315Z AUTO 00000KT 1 1/4SM BR VV007 18/18 A2994 RMK AO2 T01750175
KCVB 250255Z AUTO 00000KT 2 1/2SM BR CLR 18/18 A2993 RMK AO2 T01760176
KCVB 250235Z AUTO 35003KT 3SM BR CLR 18/18 A2992 RMK AO2 T01800180
KCVB 250215Z AUTO 33004KT 3SM BR CLR 18/18 A2992 RMK AO2 T01820182
KCVB 250155Z AUTO 28003KT 5SM BR CLR 19/19 A2992 RMK AO2 T01870187
KCVB 250135Z AUTO 00000KT 5SM BR CLR 20/19 A2990 RMK AO2 T01950193
KCVB 250115Z AUTO 34004KT 5SM BR CLR 20/20 A2989 RMK AO2 T01980196
KCVB 250055Z AUTO 36004KT 7SM CLR 21/20 A2988 RMK AO2 T02050198
KCVB 250035Z AUTO 00000KT 5SM BR CLR 21/20 A2989 RMK AO2 T02100202
KCVB 250015Z AUTO 00000KT 5SM BR CLR 22/20 A2988 RMK AO2 T02170195
KCVB 242355Z AUTO 00000KT 5SM BR CLR 22/20 A2988 RMK AO2 T02180195 10231 20203
KCVB 242335Z AUTO 00000KT 5SM HZ CLR 22/19 A2987 RMK AO2 T02220188
KCVB 242315Z AUTO 00000KT 5SM HZ CLR 23/19 A2989 RMK AO2 T02250187
KCVB 242255Z AUTO 00000KT 5SM HZ CLR 23/19 A2986 RMK AO2 T02250185
KCVB 242235Z AUTO 00000KT 7SM CLR 23/18 A2985 RMK AO2 T02250181
KCVB 242215Z AUTO 00000KT 7SM CLR 23/19 A2985 RMK AO2 T02270185
KCVB 242155Z AUTO 17005KT 7SM CLR 23/19 A2985 RMK AO2 T02250190
KCVB 242135Z AUTO 18007KT 7SM SCT015 SCT033 23/19 A2986 RMK AO2 T02250188
KCVB 242115Z AUTO 18006KT 5SM HZ SCT015 SCT036 23/19 A2986 RMK AO2 T02260187
KCVB 242055Z AUTO 17006KT 7SM SCT015 SCT023 BKN036 23/19 A2986 RMK AO2 T02280187
KCVB 242035Z AUTO 18005KT 5SM HZ SCT015 BKN023 OVC036 23/20 A2987 RMK AO2 T02290200
KCVB 242015Z AUTO 22008KT 7SM BKN014 BKN020 OVC025 22/20 A2988 RMK AO2 T02230197
KCVB 241955Z AUTO 19007KT 7SM BKN012 BKN018 OVC033 22/20 A2987 RMK AO2 T02230202
KCVB 241935Z AUTO 21006KT 7SM SCT012 OVC029 22/20 A2988 RMK AO2 T02220203
KCVB 241915Z AUTO 20006KT 7SM SCT008 BKN025 OVC032 22/21 A2989 RMK AO2 T02200207
KCVB 241855Z AUTO 20006KT 5SM BR SCT008 BKN023 OVC034 22/21 A2991 RMK AO2 T02150208
KCVB 241835Z AUTO 00000KT 4SM BR SCT008 SCT013 OVC023 21/21 A2992 RMK AO2 T02070207
KCVB 241815Z AUTO 20005KT 4SM -DZ BKN008 OVC012 21/21 A2993 RMK AO2 T02050205
KCVB 241755Z AUTO 19005KT 2 1/2SM RA OVC008 21/21 A2994 RMK AO2 T02050205 10205 20201
KCVB 241735Z AUTO 17004KT 3SM BR OVC008 21/21 A2993 RMK AO2 T02050205
KCVB 241715Z AUTO 19006KT 4SM BR BKN008 OVC011 21/21 A2993 RMK AO2 T02050205
KCVB 241655Z AUTO 21006KT 3SM RA OVC008 21/20 A2994 RMK AO2 T02050204
KCVB 241635Z AUTO 18007KT 5SM BR OVC008 21/21 A2993 RMK AO2 T02050205
KCVB 241615Z AUTO 17005KT 3SM BR OVC008 20/20 A2993 RMK AO2 T02020202
KCVB 241555Z AUTO 17005KT 2 1/2SM -RA OVC008 20/20 A2992 RMK AO2 T02010201
KCVB 241535Z AUTO 16007KT 2 1/2SM DZ OVC008 20/20 A2993 RMK AO2 T02010201
KCVB 241515Z AUTO 16005KT 3SM -RA OVC008 20/20 A2993 RMK AO2 T02020201
KCVB 241455Z AUTO 16006KT 4SM BR OVC010 20/20 A2992 RMK AO2 T02030202
KCVB 241435Z AUTO 16006KT 3SM BR OVC008 20/20 A2992 RMK AO2 T02020201
KCVB 241415Z AUTO 17006KT 4SM BR BKN008 OVC013 20/20 A2992 RMK AO2 T02020201
KCVB 241355Z AUTO 18005KT 4SM BR OVC010 20/20 A2992 RMK AO2 T02020201
KCVB 241335Z AUTO 16006KT 4SM BR BKN008 OVC011 20/20 A2991 RMK AO2 T02010200
KCVB 241315Z AUTO 15010KT 4SM BR OVC006 20/20 A2990 RMK AO2 T02020201
KCVB 241255Z AUTO 16009KT 5SM BR OVC008 20/20 A2990 RMK AO2 T02020201
KCVB 241235Z AUTO 15010G14KT 5SM BR OVC008 20/20 A2988 RMK AO2 T02020201
KCVB 241215Z AUTO 15010KT 7SM OVC008 20/20 A2988 RMK AO2 T02020201
KCVB 241155Z AUTO 17006KT 5SM BR OVC008 20/20 A2989 RMK AO2 70011 T02010200 10202 20191
KCVB 241135Z AUTO 15007KT 5SM BR OVC008 20/20 A2988 RMK AO2 T02000200
KCVB 241115Z AUTO 16007KT 5SM BR OVC008 20/20 A2989 RMK AO2 T02000200
KCVB 241055Z AUTO 16007KT 7SM OVC008 20/20 A2989 RMK AO2 T02000198
KCVB 241035Z AUTO 17010KT 7SM OVC008 20/20 A2990 RMK AO2 T02000199
KCVB 241015Z AUTO 17009KT 7SM BKN010 OVC014 20/20 A2989 RMK AO2 T02000197
KCVB 240955Z AUTO 15009G16KT 7SM BKN010 OVC014 20/20 A2987 RMK AO2 T02000197
KCVB 240935Z AUTO 16015G22KT 7SM BKN008 20/20 A2988 RMK AO2 T02020197
KCVB 240915Z AUTO 14015G25KT 7SM SCT008 SCT090 SCT110 20/20 A2986 RMK AO2 T02000198
KCVB 240855Z AUTO 16016G27KT 7SM -DZ BKN008 BKN080 OVC110 20/20 A2990 RMK AO2 T01980197
KCVB 240835Z AUTO 15015G22KT 7SM -DZ OVC008 20/20 A2990 RMK AO2 T01980197
KCVB 240815Z AUTO 14014G23KT 7SM -DZ BKN008 OVC019 20/20 A2989 RMK AO2 T01970197
KCVB 240755Z AUTO 13014KT 7SM -DZ OVC008 20/20 A2990 RMK AO2 T01950195
KCVB 240735Z AUTO 14013G17KT 5SM BR OVC008 20/20 A2994 RMK AO2 T01960196
KCVB 240715Z AUTO 15010KT 5SM BR OVC008 20/20 A2998 RMK AO2 T01950195
KCVB 240655Z AUTO 13007KT 5SM BR OVC008 19/19 A2998 RMK AO2 T01920192
KCVB 240635Z AUTO 13003KT 5SM BR OVC008 19/19 A2999 RMK AO2 T01910191
KCVB 240615Z AUTO 12003KT 5SM BR OVC008 19/19 A2999 RMK AO2 T01910191
KCVB 240555Z AUTO 13003KT 5SM BR OVC008 19/19 A2999 RMK AO2 T01910191 10191 20182 401950105
KCVB 240535Z AUTO 11005KT 7SM OVC008 19/19 A2998 RMK AO2 T01900190
KCVB 240515Z AUTO 10005KT 7SM OVC010 19/19 A2999 RMK AO2 T01870187
KCVB 240455Z AUTO 09005KT 7SM OVC012 19/19 A2999 RMK AO2 T01870187
KCVB 240435Z AUTO 09005KT 7SM OVC014 19/19 A3000 RMK AO2 T01860186
KCVB 240415Z AUTO 08003KT 5SM BR OVC016 19/19 A2999 RMK AO2 T01850185
KCVB 240355Z AUTO 00000KT 5SM BR OVC016 19/19 A3001 RMK AO2 T01860186
KCVB 240335Z AUTO 09003KT 5SM BR BKN016 BKN026 OVC044 19/19 A3000 RMK AO2 T01860186
KCVB 240315Z AUTO 00000KT 4SM BR SCT020 SCT028 OVC044 19/19 A3001 RMK AO2 T01850185
KCVB 240255Z AUTO 00000KT 3SM BR BKN020 OVC045 19/19 A3001 RMK AO2 T01850185
KCVB 240235Z AUTO 00000KT 3SM BR BKN020 BKN025 OVC047 19/19 A3001 RMK AO2 T01860186
KCVB 240215Z AUTO 00000KT 4SM BR OVC022 19/19 A3001 RMK AO2 T01850185
KCVB 240155Z AUTO 33003KT 3SM BR BKN024 OVC045 18/18 A3001 RMK AO2 T01840184
KCVB 240135Z AUTO 35003KT 1 1/4SM BR SCT024 OVC047 19/19 A3000 RMK AO2 T01870187
KCVB 240115Z AUTO 00000KT 1SM BR BKN022 OVC041 19/19 A3000 RMK AO2 T01860186
KCVB 240055Z AUTO 00000KT 2 1/2SM BR SCT022 BKN041 OVC049 19/19 A3001 RMK AO2 T01860186
KCVB 240035Z AUTO 00000KT 1 3/4SM BR SCT025 BKN033 OVC043 19/19 A3000 RMK AO2 T01900190
KCVB 240015Z AUTO 00000KT 2SM BR SCT017 OVC023 19/19 A3001 RMK AO2 T01900190
KCVB 232355Z AUTO 00000KT 2 1/2SM BR BKN017 OVC023 19/19 A3001 RMK AO2 60002 T01920192 10195 20150
KCVB 232335Z AUTO 00000KT 3SM BR BKN019 OVC029 19/19 A3001 RMK AO2 T01940194
KCVB 232315Z AUTO 00000KT 5SM BR SCT006 BKN021 OVC027 20/20 A3001 RMK AO2 T01950195
KCVB 232255Z AUTO 16004KT 4SM BR BKN006 BKN010 OVC029 20/20 A3001 RMK AO2 T01950195
KCVB 232235Z AUTO 15007KT 4SM -RA BKN006 OVC019 20/20 A3002 RMK AO2 T01950195
KCVB 232215Z AUTO 15006KT 3SM -RA OVC004 19/19 A3002 RMK AO2 T01930193
KCVB 232155Z AUTO 15007KT 3SM -DZ OVC004 19/19 A3002 RMK AO2 T01930193
KCVB 232135Z AUTO 14009KT 3SM -RA OVC004 19/19 A3002 RMK AO2 T01910191
KCVB 232115Z AUTO 14009KT 2SM RA OVC004 19/19 A3002 RMK AO2 T01900190
KCVB 232055Z AUTO 15009KT 2 1/2SM RA OVC004 19/19 A3004 RMK AO2 60002 T01880188
KCVB 232035Z AUTO 15010KT 3SM BR OVC004 19/19 A3005 RMK AO2 T01870187
KCVB 232015Z AUTO 15009KT 3SM -DZ OVC004 19/19 A3005 RMK AO2 T01850185
KCVB 231955Z AUTO 14005KT 1 1/2SM -RA OVC002 18/18 A3006 RMK AO2 LTG DSNT NE P0001 T01760176
KCVB 231935Z AUTO 12003KT 1 1/4SM -RA OVC002 17/17 A3008 RMK AO2 P0001 T01700170
KCVB 231915Z AUTO 13003KT 1 1/4SM -RA OVC002 17/17 A3009 RMK AO2 T01650165
KCVB 231855Z AUTO 11004KT 2 1/2SM -RA OVC002 16/16 A3010 RMK AO2 P0001 T01600160
KCVB 231835Z AUTO 12005KT 1 3/4SM -DZ OVC002 16/16 A3012 RMK AO2 P0001 T01580158
KCVB 231815Z AUTO 10005KT 1 3/4SM -DZ OVC002 15/15 A3013 RMK AO2 T01500150
KCVB 231755Z AUTO 10005KT 1/2SM -RA OVC002 15/15 A3014 RMK AO2 P0001 60009 T01490149 10149 20129